IN58 weather

Sealscott Airport
Monroeville, Indiana, United States

Public forecast

Using degrees Fahrenheit for public forecast. Weather courtesy of forecast.io.

METAR (pilot weather report)

Closest report is Fort Wayne International Airport, 16.4 nm (30.4 km) WNW. Retrieved 2019/04/25 06:54 UTC (28 minutes ago):

KFWA 250654Z 06004KT 10SM OVC020 11/08 A2984 RMK AO2 SLP107 T01060078 $

TAF (pilot weather forecast)

Closest forecast is Fort Wayne International Airport, 16.4 nm (30.4 km) WNW. Retrieved 2019/04/25 06:24 UTC (58 minutes ago):

TAF KFWA 250522Z 2506/2606 16007KT P6SM VCSH OVC030 FM250900 12004KT P6SM VCSH OVC017 FM251200 14004KT P6SM VCSH OVC008 FM260200 34008KT 5SM -SHRA BR OVC006